sensor_id;sensor_type;location;lat;lon;timestamp;P1;durP1;ratioP1;P2;durP2;ratioP2
11962;SDS011;62678;52.130;5.584;2023-06-14T00:02:00;4.25;;;2.65;;
11962;SDS011;62678;52.130;5.584;2023-06-14T00:04:27;8.45;;;2.80;;
11962;SDS011;62678;52.130;5.584;2023-06-14T00:06:55;6.25;;;2.63;;
11962;SDS011;62678;52.130;5.584;2023-06-14T00:09:22;6.80;;;2.90;;
11962;SDS011;62678;52.130;5.584;2023-06-14T00:11:49;4.35;;;2.85;;
11962;SDS011;62678;52.130;5.584;2023-06-14T00:14:17;7.10;;;2.95;;
11962;SDS011;62678;52.130;5.584;2023-06-14T00:16:44;6.18;;;3.30;;
11962;SDS011;62678;52.130;5.584;2023-06-14T00:19:12;7.55;;;2.67;;
11962;SDS011;62678;52.130;5.584;2023-06-14T00:21:40;6.40;;;2.80;;
11962;SDS011;62678;52.130;5.584;2023-06-14T00:24:08;11.65;;;2.63;;
11962;SDS011;62678;52.130;5.584;2023-06-14T00:26:35;6.75;;;2.72;;
11962;SDS011;62678;52.130;5.584;2023-06-14T00:29:01;9.60;;;2.72;;
11962;SDS011;62678;52.130;5.584;2023-06-14T00:31:30;4.40;;;2.80;;
11962;SDS011;62678;52.130;5.584;2023-06-14T00:33:57;6.25;;;2.60;;
11962;SDS011;62678;52.130;5.584;2023-06-14T00:36:23;5.40;;;2.95;;
11962;SDS011;62678;52.130;5.584;2023-06-14T00:38:50;7.25;;;2.60;;
11962;SDS011;62678;52.130;5.584;2023-06-14T00:41:18;5.53;;;2.67;;
11962;SDS011;62678;52.130;5.584;2023-06-14T00:43:45;6.78;;;2.40;;
11962;SDS011;62678;52.130;5.584;2023-06-14T00:46:12;6.43;;;3.03;;
11962;SDS011;62678;52.130;5.584;2023-06-14T00:48:41;6.32;;;3.03;;
11962;SDS011;62678;52.130;5.584;2023-06-14T00:51:08;5.43;;;2.90;;
11962;SDS011;62678;52.130;5.584;2023-06-14T00:53:35;11.20;;;2.88;;
11962;SDS011;62678;52.130;5.584;2023-06-14T00:56:04;6.22;;;2.70;;
11962;SDS011;62678;52.130;5.584;2023-06-14T00:58:32;12.55;;;3.25;;
11962;SDS011;62678;52.130;5.584;2023-06-14T01:00:59;5.50;;;2.50;;
11962;SDS011;62678;52.130;5.584;2023-06-14T01:03:27;6.20;;;2.58;;
11962;SDS011;62678;52.130;5.584;2023-06-14T01:05:59;5.43;;;2.70;;
11962;SDS011;62678;52.130;5.584;2023-06-14T01:08:35;6.82;;;3.15;;
11962;SDS011;62678;52.130;5.584;2023-06-14T01:11:15;9.05;;;2.50;;
11962;SDS011;62678;52.130;5.584;2023-06-14T01:13:47;7.78;;;2.80;;
11962;SDS011;62678;52.130;5.584;2023-06-14T01:16:18;7.15;;;2.65;;
11962;SDS011;62678;52.130;5.584;2023-06-14T01:18:45;7.78;;;2.65;;
11962;SDS011;62678;52.130;5.584;2023-06-14T01:21:21;9.25;;;2.80;;
11962;SDS011;62678;52.130;5.584;2023-06-14T01:23:51;6.15;;;2.70;;
11962;SDS011;62678;52.130;5.584;2023-06-14T01:26:19;5.63;;;2.45;;
11962;SDS011;62678;52.130;5.584;2023-06-14T01:28:47;7.00;;;2.47;;
11962;SDS011;62678;52.130;5.584;2023-06-14T01:31:16;10.20;;;2.63;;
11962;SDS011;62678;52.130;5.584;2023-06-14T01:33:46;7.50;;;2.70;;
11962;SDS011;62678;52.130;5.584;2023-06-14T01:36:15;7.32;;;2.83;;
11962;SDS011;62678;52.130;5.584;2023-06-14T01:38:44;7.80;;;2.95;;
11962;SDS011;62678;52.130;5.584;2023-06-14T01:41:14;6.93;;;2.83;;
11962;SDS011;62678;52.130;5.584;2023-06-14T01:43:42;6.78;;;2.92;;
11962;SDS011;62678;52.130;5.584;2023-06-14T01:46:10;9.73;;;2.60;;
11962;SDS011;62678;52.130;5.584;2023-06-14T01:48:37;7.13;;;2.80;;
11962;SDS011;62678;52.130;5.584;2023-06-14T01:51:04;6.95;;;2.58;;
11962;SDS011;62678;52.130;5.584;2023-06-14T01:53:31;7.38;;;2.92;;
11962;SDS011;62678;52.130;5.584;2023-06-14T01:55:58;7.15;;;2.50;;
11962;SDS011;62678;52.130;5.584;2023-06-14T01:58:27;3.85;;;2.60;;
11962;SDS011;62678;52.130;5.584;2023-06-14T02:00:54;5.88;;;2.58;;
11962;SDS011;62678;52.130;5.584;2023-06-14T02:03:21;4.53;;;2.70;;
11962;SDS011;62678;52.130;5.584;2023-06-14T02:05:50;8.68;;;2.65;;
11962;SDS011;62678;52.130;5.584;2023-06-14T02:08:16;6.05;;;2.25;;
11962;SDS011;62678;52.130;5.584;2023-06-14T02:10:43;5.80;;;2.60;;
11962;SDS011;62678;52.130;5.584;2023-06-14T02:13:10;4.18;;;2.50;;
11962;SDS011;62678;52.130;5.584;2023-06-14T02:15:38;5.45;;;2.28;;
11962;SDS011;62678;52.130;5.584;2023-06-14T02:18:08;6.80;;;2.33;;
11962;SDS011;62678;52.130;5.584;2023-06-14T02:20:36;7.57;;;2.45;;
11962;SDS011;62678;52.130;5.584;2023-06-14T02:23:03;8.02;;;2.83;;
11962;SDS011;62678;52.130;5.584;2023-06-14T02:25:30;6.65;;;2.78;;
11962;SDS011;62678;52.130;5.584;2023-06-14T02:27:57;5.97;;;2.72;;
11962;SDS011;62678;52.130;5.584;2023-06-14T02:30:23;4.18;;;2.60;;
11962;SDS011;62678;52.130;5.584;2023-06-14T02:32:51;5.95;;;2.47;;
11962;SDS011;62678;52.130;5.584;2023-06-14T02:35:18;5.25;;;2.58;;
11962;SDS011;62678;52.130;5.584;2023-06-14T02:37:47;5.22;;;2.53;;
11962;SDS011;62678;52.130;5.584;2023-06-14T02:40:14;6.80;;;2.45;;
11962;SDS011;62678;52.130;5.584;2023-06-14T02:42:41;6.22;;;2.83;;
11962;SDS011;62678;52.130;5.584;2023-06-14T02:45:10;6.38;;;2.55;;
11962;SDS011;62678;52.130;5.584;2023-06-14T02:47:36;3.75;;;2.70;;
11962;SDS011;62678;52.130;5.584;2023-06-14T02:50:05;5.90;;;2.38;;
11962;SDS011;62678;52.130;5.584;2023-06-14T02:52:34;3.63;;;2.30;;
11962;SDS011;62678;52.130;5.584;2023-06-14T02:55:06;6.00;;;2.60;;
11962;SDS011;62678;52.130;5.584;2023-06-14T02:57:34;6.20;;;2.70;;
11962;SDS011;62678;52.130;5.584;2023-06-14T03:00:02;5.45;;;2.70;;
11962;SDS011;62678;52.130;5.584;2023-06-14T03:02:29;7.30;;;2.63;;
11962;SDS011;62678;52.130;5.584;2023-06-14T03:04:56;6.57;;;2.70;;
11962;SDS011;62678;52.130;5.584;2023-06-14T03:07:27;5.30;;;2.63;;
11962;SDS011;62678;52.130;5.584;2023-06-14T03:09:54;4.47;;;2.80;;
11962;SDS011;62678;52.130;5.584;2023-06-14T03:12:21;7.88;;;2.85;;
11962;SDS011;62678;52.130;5.584;2023-06-14T03:14:48;7.53;;;2.80;;
11962;SDS011;62678;52.130;5.584;2023-06-14T03:17:15;8.18;;;2.85;;
11962;SDS011;62678;52.130;5.584;2023-06-14T03:19:44;5.93;;;2.70;;
11962;SDS011;62678;52.130;5.584;2023-06-14T03:22:11;10.13;;;2.85;;
11962;SDS011;62678;52.130;5.584;2023-06-14T03:24:39;7.03;;;2.85;;
11962;SDS011;62678;52.130;5.584;2023-06-14T03:27:07;4.57;;;2.63;;
11962;SDS011;62678;52.130;5.584;2023-06-14T03:29:35;4.93;;;2.30;;
11962;SDS011;62678;52.130;5.584;2023-06-14T03:32:02;6.07;;;2.38;;
11962;SDS011;62678;52.130;5.584;2023-06-14T03:34:30;6.63;;;2.70;;
11962;SDS011;62678;52.130;5.584;2023-06-14T03:36:56;5.07;;;2.42;;
11962;SDS011;62678;52.130;5.584;2023-06-14T03:39:23;8.02;;;2.80;;
11962;SDS011;62678;52.130;5.584;2023-06-14T03:41:52;7.97;;;2.70;;
11962;SDS011;62678;52.130;5.584;2023-06-14T03:44:18;6.50;;;2.75;;
11962;SDS011;62678;52.130;5.584;2023-06-14T03:46:45;8.48;;;2.92;;
11962;SDS011;62678;52.130;5.584;2023-06-14T03:49:13;6.90;;;2.78;;
11962;SDS011;62678;52.130;5.584;2023-06-14T03:51:41;7.43;;;2.70;;
11962;SDS011;62678;52.130;5.584;2023-06-14T03:54:08;4.07;;;2.50;;
11962;SDS011;62678;52.130;5.584;2023-06-14T03:56:35;5.95;;;2.70;;
11962;SDS011;62678;52.130;5.584;2023-06-14T03:59:03;10.73;;;2.80;;
11962;SDS011;62678;52.130;5.584;2023-06-14T04:01:30;6.35;;;2.25;;
11962;SDS011;62678;52.130;5.584;2023-06-14T04:03:58;5.93;;;2.80;;
11962;SDS011;62678;52.130;5.584;2023-06-14T04:06:26;6.38;;;2.90;;
11962;SDS011;62678;52.130;5.584;2023-06-14T04:08:58;7.82;;;2.80;;
11962;SDS011;62678;52.130;5.584;2023-06-14T04:11:28;7.55;;;2.92;;
11962;SDS011;62678;52.130;5.584;2023-06-14T04:13:55;8.20;;;3.13;;
11962;SDS011;62678;52.130;5.584;2023-06-14T04:16:24;7.07;;;2.70;;
11962;SDS011;62678;52.130;5.584;2023-06-14T04:18:50;7.22;;;2.60;;
11962;SDS011;62678;52.130;5.584;2023-06-14T04:21:18;7.30;;;3.15;;
11962;SDS011;62678;52.130;5.584;2023-06-14T04:23:46;6.93;;;2.70;;
11962;SDS011;62678;52.130;5.584;2023-06-14T04:26:12;9.48;;;2.80;;
11962;SDS011;62678;52.130;5.584;2023-06-14T04:28:41;8.93;;;2.92;;
11962;SDS011;62678;52.130;5.584;2023-06-14T04:31:10;6.88;;;3.28;;
11962;SDS011;62678;52.130;5.584;2023-06-14T04:33:38;4.88;;;2.95;;
11962;SDS011;62678;52.130;5.584;2023-06-14T04:36:08;7.63;;;3.08;;
11962;SDS011;62678;52.130;5.584;2023-06-14T04:38:36;9.27;;;2.75;;
11962;SDS011;62678;52.130;5.584;2023-06-14T04:41:03;6.93;;;3.03;;
11962;SDS011;62678;52.130;5.584;2023-06-14T04:43:31;6.47;;;2.58;;
11962;SDS011;62678;52.130;5.584;2023-06-14T04:46:03;12.52;;;3.20;;
11962;SDS011;62678;52.130;5.584;2023-06-14T04:48:35;9.65;;;3.10;;
11962;SDS011;62678;52.130;5.584;2023-06-14T04:51:07;11.40;;;3.00;;
11962;SDS011;62678;52.130;5.584;2023-06-14T04:53:35;8.35;;;2.72;;
11962;SDS011;62678;52.130;5.584;2023-06-14T04:56:02;8.82;;;2.70;;
11962;SDS011;62678;52.130;5.584;2023-06-14T04:58:29;9.65;;;3.42;;
11962;SDS011;62678;52.130;5.584;2023-06-14T05:00:56;13.95;;;3.15;;
11962;SDS011;62678;52.130;5.584;2023-06-14T05:03:24;16.50;;;3.38;;
11962;SDS011;62678;52.130;5.584;2023-06-14T05:05:53;8.82;;;3.20;;
11962;SDS011;62678;52.130;5.584;2023-06-14T05:08:20;8.02;;;3.30;;
11962;SDS011;62678;52.130;5.584;2023-06-14T05:10:49;12.40;;;3.60;;
11962;SDS011;62678;52.130;5.584;2023-06-14T05:13:16;8.98;;;2.90;;
11962;SDS011;62678;52.130;5.584;2023-06-14T05:15:43;13.70;;;3.28;;
11962;SDS011;62678;52.130;5.584;2023-06-14T05:18:10;9.88;;;3.03;;
11962;SDS011;62678;52.130;5.584;2023-06-14T05:20:38;11.93;;;2.90;;
11962;SDS011;62678;52.130;5.584;2023-06-14T05:23:08;13.82;;;2.97;;
11962;SDS011;62678;52.130;5.584;2023-06-14T05:25:40;6.72;;;3.03;;
11962;SDS011;62678;52.130;5.584;2023-06-14T05:28:08;7.22;;;2.95;;
11962;SDS011;62678;52.130;5.584;2023-06-14T05:30:35;6.90;;;3.03;;
11962;SDS011;62678;52.130;5.584;2023-06-14T05:33:05;10.43;;;2.70;;
11962;SDS011;62678;52.130;5.584;2023-06-14T05:35:32;7.40;;;2.85;;
11962;SDS011;62678;52.130;5.584;2023-06-14T05:37:59;4.78;;;2.75;;
11962;SDS011;62678;52.130;5.584;2023-06-14T05:40:27;8.38;;;2.75;;
11962;SDS011;62678;52.130;5.584;2023-06-14T05:42:54;6.30;;;2.70;;
11962;SDS011;62678;52.130;5.584;2023-06-14T05:45:21;13.02;;;3.10;;
11962;SDS011;62678;52.130;5.584;2023-06-14T05:47:48;4.70;;;2.72;;
11962;SDS011;62678;52.130;5.584;2023-06-14T05:50:16;8.63;;;2.65;;
11962;SDS011;62678;52.130;5.584;2023-06-14T05:52:43;3.80;;;2.70;;
11962;SDS011;62678;52.130;5.584;2023-06-14T05:55:10;7.90;;;2.70;;
11962;SDS011;62678;52.130;5.584;2023-06-14T05:57:39;7.78;;;2.65;;
11962;SDS011;62678;52.130;5.584;2023-06-14T06:00:07;5.55;;;2.42;;
11962;SDS011;62678;52.130;5.584;2023-06-14T06:02:39;6.78;;;2.60;;
11962;SDS011;62678;52.130;5.584;2023-06-14T06:05:07;7.80;;;2.75;;
11962;SDS011;62678;52.130;5.584;2023-06-14T06:07:34;3.33;;;2.55;;
11962;SDS011;62678;52.130;5.584;2023-06-14T06:10:01;4.82;;;2.50;;
11962;SDS011;62678;52.130;5.584;2023-06-14T06:12:28;3.53;;;2.53;;
11962;SDS011;62678;52.130;5.584;2023-06-14T06:14:56;5.93;;;3.05;;
11962;SDS011;62678;52.130;5.584;2023-06-14T06:17:23;4.72;;;2.95;;
11962;SDS011;62678;52.130;5.584;2023-06-14T06:19:50;8.88;;;2.78;;
11962;SDS011;62678;52.130;5.584;2023-06-14T06:22:17;7.53;;;2.45;;
11962;SDS011;62678;52.130;5.584;2023-06-14T06:24:44;3.30;;;2.35;;
11962;SDS011;62678;52.130;5.584;2023-06-14T06:27:11;7.95;;;2.47;;
11962;SDS011;62678;52.130;5.584;2023-06-14T06:29:38;5.47;;;2.55;;
11962;SDS011;62678;52.130;5.584;2023-06-14T06:32:07;5.13;;;2.95;;
11962;SDS011;62678;52.130;5.584;2023-06-14T06:34:34;6.00;;;2.58;;
11962;SDS011;62678;52.130;5.584;2023-06-14T06:37:02;4.75;;;2.80;;
11962;SDS011;62678;52.130;5.584;2023-06-14T06:39:29;5.45;;;2.60;;
11962;SDS011;62678;52.130;5.584;2023-06-14T06:41:56;8.52;;;2.50;;
11962;SDS011;62678;52.130;5.584;2023-06-14T06:44:23;7.50;;;3.00;;
11962;SDS011;62678;52.130;5.584;2023-06-14T06:46:50;4.63;;;2.45;;
11962;SDS011;62678;52.130;5.584;2023-06-14T06:49:18;7.97;;;2.50;;
11962;SDS011;62678;52.130;5.584;2023-06-14T06:51:58;5.40;;;2.50;;
11962;SDS011;62678;52.130;5.584;2023-06-14T06:54:26;4.05;;;2.28;;
11962;SDS011;62678;52.130;5.584;2023-06-14T06:56:52;3.50;;;2.15;;
11962;SDS011;62678;52.130;5.584;2023-06-14T06:59:19;7.00;;;2.40;;
11962;SDS011;62678;52.130;5.584;2023-06-14T07:01:47;4.53;;;2.25;;
11962;SDS011;62678;52.130;5.584;2023-06-14T07:04:13;3.80;;;2.30;;
11962;SDS011;62678;52.130;5.584;2023-06-14T07:06:42;4.78;;;2.25;;
11962;SDS011;62678;52.130;5.584;2023-06-14T07:09:09;3.63;;;2.53;;
11962;SDS011;62678;52.130;5.584;2023-06-14T07:11:38;6.15;;;2.75;;
11962;SDS011;62678;52.130;5.584;2023-06-14T07:14:05;6.38;;;2.45;;
11962;SDS011;62678;52.130;5.584;2023-06-14T07:16:31;6.25;;;2.00;;
11962;SDS011;62678;52.130;5.584;2023-06-14T07:18:58;3.97;;;2.00;;
11962;SDS011;62678;52.130;5.584;2023-06-14T07:21:26;6.47;;;2.40;;
11962;SDS011;62678;52.130;5.584;2023-06-14T07:23:54;3.40;;;2.00;;
11962;SDS011;62678;52.130;5.584;2023-06-14T07:26:21;5.72;;;2.63;;
11962;SDS011;62678;52.130;5.584;2023-06-14T07:28:48;3.15;;;1.92;;
11962;SDS011;62678;52.130;5.584;2023-06-14T07:31:15;4.85;;;2.30;;
11962;SDS011;62678;52.130;5.584;2023-06-14T07:33:44;3.78;;;1.90;;
11962;SDS011;62678;52.130;5.584;2023-06-14T07:36:11;2.88;;;1.88;;
11962;SDS011;62678;52.130;5.584;2023-06-14T07:38:38;4.60;;;1.98;;
11962;SDS011;62678;52.130;5.584;2023-06-14T07:41:07;4.18;;;1.88;;
11962;SDS011;62678;52.130;5.584;2023-06-14T07:43:34;5.55;;;1.63;;
11962;SDS011;62678;52.130;5.584;2023-06-14T07:46:01;4.05;;;2.03;;
11962;SDS011;62678;52.130;5.584;2023-06-14T07:48:28;3.17;;;1.73;;
11962;SDS011;62678;52.130;5.584;2023-06-14T07:50:54;3.33;;;2.00;;
11962;SDS011;62678;52.130;5.584;2023-06-14T07:53:21;3.75;;;1.60;;
11962;SDS011;62678;52.130;5.584;2023-06-14T07:55:48;2.90;;;1.60;;
11962;SDS011;62678;52.130;5.584;2023-06-14T07:58:17;5.00;;;1.70;;
11962;SDS011;62678;52.130;5.584;2023-06-14T08:00:43;4.32;;;1.40;;
11962;SDS011;62678;52.130;5.584;2023-06-14T08:03:11;5.43;;;1.30;;
11962;SDS011;62678;52.130;5.584;2023-06-14T08:05:38;3.42;;;1.45;;
11962;SDS011;62678;52.130;5.584;2023-06-14T08:08:04;2.78;;;1.40;;
11962;SDS011;62678;52.130;5.584;2023-06-14T08:10:31;3.17;;;1.13;;
11962;SDS011;62678;52.130;5.584;2023-06-14T08:12:58;1.95;;;1.40;;
11962;SDS011;62678;52.130;5.584;2023-06-14T08:15:26;1.98;;;1.35;;
11962;SDS011;62678;52.130;5.584;2023-06-14T08:17:53;2.72;;;1.30;;
11962;SDS011;62678;52.130;5.584;2023-06-14T08:20:21;4.60;;;1.20;;
11962;SDS011;62678;52.130;5.584;2023-06-14T08:22:49;2.67;;;1.10;;
11962;SDS011;62678;52.130;5.584;2023-06-14T08:25:20;2.40;;;1.25;;
11962;SDS011;62678;52.130;5.584;2023-06-14T08:27:47;2.95;;;1.45;;
11962;SDS011;62678;52.130;5.584;2023-06-14T08:30:14;2.17;;;1.17;;
11962;SDS011;62678;52.130;5.584;2023-06-14T08:32:43;2.42;;;1.48;;
11962;SDS011;62678;52.130;5.584;2023-06-14T08:35:10;3.33;;;1.55;;
11962;SDS011;62678;52.130;5.584;2023-06-14T08:37:40;4.03;;;1.70;;
11962;SDS011;62678;52.130;5.584;2023-06-14T08:40:12;1.95;;;1.30;;
11962;SDS011;62678;52.130;5.584;2023-06-14T08:42:47;3.90;;;1.27;;
11962;SDS011;62678;52.130;5.584;2023-06-14T08:45:16;3.60;;;1.20;;
11962;SDS011;62678;52.130;5.584;2023-06-14T08:47:44;4.82;;;1.17;;
11962;SDS011;62678;52.130;5.584;2023-06-14T08:50:17;1.52;;;1.10;;
11962;SDS011;62678;52.130;5.584;2023-06-14T08:52:46;2.58;;;1.23;;
11962;SDS011;62678;52.130;5.584;2023-06-14T08:55:17;2.92;;;1.23;;
11962;SDS011;62678;52.130;5.584;2023-06-14T08:57:46;1.92;;;1.10;;
11962;SDS011;62678;52.130;5.584;2023-06-14T09:00:14;3.40;;;1.20;;
11962;SDS011;62678;52.130;5.584;2023-06-14T09:02:42;2.03;;;1.48;;
11962;SDS011;62678;52.130;5.584;2023-06-14T09:05:10;1.35;;;1.17;;
11962;SDS011;62678;52.130;5.584;2023-06-14T09:07:39;3.03;;;1.40;;
11962;SDS011;62678;52.130;5.584;2023-06-14T09:10:07;4.50;;;1.10;;
11962;SDS011;62678;52.130;5.584;2023-06-14T09:12:35;2.42;;;1.42;;
11962;SDS011;62678;52.130;5.584;2023-06-14T09:15:03;4.03;;;1.40;;
11962;SDS011;62678;52.130;5.584;2023-06-14T09:17:32;4.00;;;1.30;;
11962;SDS011;62678;52.130;5.584;2023-06-14T09:20:00;2.70;;;1.23;;
11962;SDS011;62678;52.130;5.584;2023-06-14T09:22:31;2.25;;;1.30;;
11962;SDS011;62678;52.130;5.584;2023-06-14T09:24:59;2.78;;;1.40;;
11962;SDS011;62678;52.130;5.584;2023-06-14T09:27:26;3.05;;;1.40;;
11962;SDS011;62678;52.130;5.584;2023-06-14T09:29:54;3.95;;;1.10;;
11962;SDS011;62678;52.130;5.584;2023-06-14T09:32:21;9.48;;;1.20;;
11962;SDS011;62678;52.130;5.584;2023-06-14T09:34:48;4.40;;;1.38;;
11962;SDS011;62678;52.130;5.584;2023-06-14T09:37:26;3.38;;;1.30;;
11962;SDS011;62678;52.130;5.584;2023-06-14T09:39:56;3.10;;;1.40;;
11962;SDS011;62678;52.130;5.584;2023-06-14T09:42:22;3.88;;;1.40;;
11962;SDS011;62678;52.130;5.584;2023-06-14T09:44:50;2.97;;;1.75;;
11962;SDS011;62678;52.130;5.584;2023-06-14T09:47:18;4.15;;;1.75;;
11962;SDS011;62678;52.130;5.584;2023-06-14T09:49:45;3.25;;;1.30;;
11962;SDS011;62678;52.130;5.584;2023-06-14T09:52:14;3.10;;;1.27;;
11962;SDS011;62678;52.130;5.584;2023-06-14T09:54:42;5.18;;;1.50;;
11962;SDS011;62678;52.130;5.584;2023-06-14T09:57:13;3.10;;;1.50;;
11962;SDS011;62678;52.130;5.584;2023-06-14T09:59:41;3.92;;;1.40;;
11962;SDS011;62678;52.130;5.584;2023-06-14T10:02:11;4.20;;;1.48;;
11962;SDS011;62678;52.130;5.584;2023-06-14T10:04:43;3.00;;;1.10;;
11962;SDS011;62678;52.130;5.584;2023-06-14T10:07:19;3.22;;;1.15;;
11962;SDS011;62678;52.130;5.584;2023-06-14T10:09:47;3.63;;;1.25;;
11962;SDS011;62678;52.130;5.584;2023-06-14T10:12:17;2.45;;;1.10;;
11962;SDS011;62678;52.130;5.584;2023-06-14T10:14:46;2.80;;;1.20;;
11962;SDS011;62678;52.130;5.584;2023-06-14T10:17:17;3.45;;;2.72;;
11962;SDS011;62678;52.130;5.584;2023-06-14T10:19:53;4.40;;;2.28;;
11962;SDS011;62678;52.130;5.584;2023-06-14T10:22:23;4.57;;;1.65;;
11962;SDS011;62678;52.130;5.584;2023-06-14T10:24:55;2.58;;;1.25;;
11962;SDS011;62678;52.130;5.584;2023-06-14T10:27:23;1.35;;;1.17;;
11962;SDS011;62678;52.130;5.584;2023-06-14T10:30:03;2.17;;;1.38;;
11962;SDS011;62678;52.130;5.584;2023-06-14T10:32:31;2.33;;;1.50;;
11962;SDS011;62678;52.130;5.584;2023-06-14T10:34:59;1.48;;;1.17;;
11962;SDS011;62678;52.130;5.584;2023-06-14T10:37:28;2.25;;;1.40;;
11962;SDS011;62678;52.130;5.584;2023-06-14T10:39:55;3.05;;;1.20;;
11962;SDS011;62678;52.130;5.584;2023-06-14T10:42:23;5.03;;;1.48;;
11962;SDS011;62678;52.130;5.584;2023-06-14T10:45:00;2.25;;;0.95;;
11962;SDS011;62678;52.130;5.584;2023-06-14T10:47:28;2.65;;;1.20;;
11962;SDS011;62678;52.130;5.584;2023-06-14T10:49:56;4.72;;;1.30;;
11962;SDS011;62678;52.130;5.584;2023-06-14T10:52:30;3.75;;;1.30;;
11962;SDS011;62678;52.130;5.584;2023-06-14T10:55:01;2.53;;;1.33;;
11962;SDS011;62678;52.130;5.584;2023-06-14T10:57:32;3.85;;;1.48;;
11962;SDS011;62678;52.130;5.584;2023-06-14T11:00:00;4.30;;;1.40;;
11962;SDS011;62678;52.130;5.584;2023-06-14T11:05:49;4.03;;;1.50;;
11962;SDS011;62678;52.130;5.584;2023-06-14T11:08:27;3.13;;;1.42;;
11962;SDS011;62678;52.130;5.584;2023-06-14T11:11:05;2.45;;;1.30;;
11962;SDS011;62678;52.130;5.584;2023-06-14T11:13:34;2.03;;;1.35;;
11962;SDS011;62678;52.130;5.584;2023-06-14T11:16:09;3.38;;;1.35;;
11962;SDS011;62678;52.130;5.584;2023-06-14T11:18:38;3.28;;;1.30;;
11962;SDS011;62678;52.130;5.584;2023-06-14T11:21:05;2.83;;;1.38;;
11962;SDS011;62678;52.130;5.584;2023-06-14T11:23:32;3.58;;;1.20;;
11962;SDS011;62678;52.130;5.584;2023-06-14T11:25:59;1.42;;;1.25;;
11962;SDS011;62678;52.130;5.584;2023-06-14T11:28:36;3.10;;;1.20;;
11962;SDS011;62678;52.130;5.584;2023-06-14T11:31:04;3.85;;;1.60;;
11962;SDS011;62678;52.130;5.584;2023-06-14T11:33:31;4.32;;;1.38;;
11962;SDS011;62678;52.130;5.584;2023-06-14T11:35:58;1.58;;;1.35;;
11962;SDS011;62678;52.130;5.584;2023-06-14T11:38:27;3.70;;;1.40;;
11962;SDS011;62678;52.130;5.584;2023-06-14T11:40:58;2.92;;;1.20;;
11962;SDS011;62678;52.130;5.584;2023-06-14T11:43:25;1.40;;;1.10;;
11962;SDS011;62678;52.130;5.584;2023-06-14T11:45:53;4.40;;;1.00;;
11962;SDS011;62678;52.130;5.584;2023-06-14T11:48:20;4.10;;;1.13;;
11962;SDS011;62678;52.130;5.584;2023-06-14T11:50:49;3.20;;;1.25;;
11962;SDS011;62678;52.130;5.584;2023-06-14T11:53:16;2.85;;;1.25;;
11962;SDS011;62678;52.130;5.584;2023-06-14T11:55:44;1.73;;;1.17;;
11962;SDS011;62678;52.130;5.584;2023-06-14T11:58:12;5.38;;;1.45;;
11962;SDS011;62678;52.130;5.584;2023-06-14T12:00:40;4.00;;;1.30;;
11962;SDS011;62678;52.130;5.584;2023-06-14T12:03:09;2.85;;;1.50;;
11962;SDS011;62678;52.130;5.584;2023-06-14T12:05:37;1.60;;;1.45;;
11962;SDS011;62678;52.130;5.584;2023-06-14T12:08:05;6.20;;;1.30;;
11962;SDS011;62678;52.130;5.584;2023-06-14T12:10:39;5.00;;;1.40;;
11962;SDS011;62678;52.130;5.584;2023-06-14T12:13:08;3.08;;;1.50;;
11962;SDS011;62678;52.130;5.584;2023-06-14T12:15:35;2.90;;;1.30;;
11962;SDS011;62678;52.130;5.584;2023-06-14T12:18:04;2.47;;;1.45;;
11962;SDS011;62678;52.130;5.584;2023-06-14T12:20:34;3.92;;;1.60;;
11962;SDS011;62678;52.130;5.584;2023-06-14T12:23:02;2.90;;;1.40;;
11962;SDS011;62678;52.130;5.584;2023-06-14T12:25:31;2.92;;;1.25;;
11962;SDS011;62678;52.130;5.584;2023-06-14T12:27:59;3.53;;;1.33;;
11962;SDS011;62678;52.130;5.584;2023-06-14T12:30:30;1.15;;;0.98;;
11962;SDS011;62678;52.130;5.584;2023-06-14T12:32:57;2.38;;;1.08;;
11962;SDS011;62678;52.130;5.584;2023-06-14T12:35:23;3.17;;;1.00;;
11962;SDS011;62678;52.130;5.584;2023-06-14T12:37:52;2.75;;;1.30;;
11962;SDS011;62678;52.130;5.584;2023-06-14T12:40:18;1.73;;;1.10;;
11962;SDS011;62678;52.130;5.584;2023-06-14T12:42:46;1.92;;;1.13;;
11962;SDS011;62678;52.130;5.584;2023-06-14T12:45:13;2.30;;;1.30;;
11962;SDS011;62678;52.130;5.584;2023-06-14T12:47:40;4.07;;;1.40;;
11962;SDS011;62678;52.130;5.584;2023-06-14T12:50:07;2.58;;;1.30;;
11962;SDS011;62678;52.130;5.584;2023-06-14T12:52:34;2.97;;;1.17;;
11962;SDS011;62678;52.130;5.584;2023-06-14T12:55:03;2.80;;;1.40;;
11962;SDS011;62678;52.130;5.584;2023-06-14T12:57:31;3.42;;;1.30;;
11962;SDS011;62678;52.130;5.584;2023-06-14T13:00:01;1.98;;;1.60;;
11962;SDS011;62678;52.130;5.584;2023-06-14T13:02:30;4.03;;;1.50;;
11962;SDS011;62678;52.130;5.584;2023-06-14T13:04:56;6.05;;;1.80;;
11962;SDS011;62678;52.130;5.584;2023-06-14T13:07:24;6.85;;;2.38;;
11962;SDS011;62678;52.130;5.584;2023-06-14T13:09:51;2.83;;;1.50;;
11962;SDS011;62678;52.130;5.584;2023-06-14T13:12:19;2.70;;;1.60;;
11962;SDS011;62678;52.130;5.584;2023-06-14T13:14:46;4.07;;;1.60;;
11962;SDS011;62678;52.130;5.584;2023-06-14T13:17:12;2.15;;;1.10;;
11962;SDS011;62678;52.130;5.584;2023-06-14T13:19:39;1.33;;;1.10;;
11962;SDS011;62678;52.130;5.584;2023-06-14T13:22:09;6.82;;;1.30;;
11962;SDS011;62678;52.130;5.584;2023-06-14T13:24:36;2.55;;;1.23;;
11962;SDS011;62678;52.130;5.584;2023-06-14T13:27:03;4.22;;;1.30;;
11962;SDS011;62678;52.130;5.584;2023-06-14T13:29:31;2.95;;;1.33;;
11962;SDS011;62678;52.130;5.584;2023-06-14T13:32:00;2.75;;;1.20;;
11962;SDS011;62678;52.130;5.584;2023-06-14T13:34:27;3.80;;;1.25;;
11962;SDS011;62678;52.130;5.584;2023-06-14T13:36:54;4.82;;;1.20;;
11962;SDS011;62678;52.130;5.584;2023-06-14T13:39:21;6.78;;;1.40;;
11962;SDS011;62678;52.130;5.584;2023-06-14T13:41:48;1.10;;;1.00;;
11962;SDS011;62678;52.130;5.584;2023-06-14T13:44:15;2.20;;;1.17;;
11962;SDS011;62678;52.130;5.584;2023-06-14T13:46:45;4.30;;;1.20;;
11962;SDS011;62678;52.130;5.584;2023-06-14T13:49:11;2.03;;;0.95;;
11962;SDS011;62678;52.130;5.584;2023-06-14T13:51:38;2.55;;;1.10;;
11962;SDS011;62678;52.130;5.584;2023-06-14T13:54:05;1.73;;;1.25;;
11962;SDS011;62678;52.130;5.584;2023-06-14T13:56:32;3.72;;;2.20;;
11962;SDS011;62678;52.130;5.584;2023-06-14T13:58:59;2.45;;;1.20;;
11962;SDS011;62678;52.130;5.584;2023-06-14T14:01:26;3.40;;;1.20;;
11962;SDS011;62678;52.130;5.584;2023-06-14T14:03:55;1.65;;;0.80;;
11962;SDS011;62678;52.130;5.584;2023-06-14T14:06:23;1.20;;;1.00;;
11962;SDS011;62678;52.130;5.584;2023-06-14T14:08:50;1.77;;;1.10;;
11962;SDS011;62678;52.130;5.584;2023-06-14T14:11:17;2.38;;;1.02;;
11962;SDS011;62678;52.130;5.584;2023-06-14T14:13:45;6.10;;;1.98;;
11962;SDS011;62678;52.130;5.584;2023-06-14T14:16:12;4.65;;;1.42;;
11962;SDS011;62678;52.130;5.584;2023-06-14T14:18:39;2.92;;;0.95;;
11962;SDS011;62678;52.130;5.584;2023-06-14T14:21:08;1.33;;;1.05;;
11962;SDS011;62678;52.130;5.584;2023-06-14T14:23:34;1.25;;;0.85;;
11962;SDS011;62678;52.130;5.584;2023-06-14T14:26:01;1.17;;;0.80;;
11962;SDS011;62678;52.130;5.584;2023-06-14T14:28:29;1.50;;;0.90;;
11962;SDS011;62678;52.130;5.584;2023-06-14T14:30:56;1.10;;;1.00;;
11962;SDS011;62678;52.130;5.584;2023-06-14T14:33:23;5.13;;;1.00;;
11962;SDS011;62678;52.130;5.584;2023-06-14T14:35:49;2.42;;;0.73;;
11962;SDS011;62678;52.130;5.584;2023-06-14T14:38:18;3.00;;;1.00;;
11962;SDS011;62678;52.130;5.584;2023-06-14T14:40:44;1.88;;;1.08;;
11962;SDS011;62678;52.130;5.584;2023-06-14T14:43:11;2.50;;;0.77;;
11962;SDS011;62678;52.130;5.584;2023-06-14T14:45:38;1.73;;;0.80;;
11962;SDS011;62678;52.130;5.584;2023-06-14T14:48:05;2.13;;;0.80;;
11962;SDS011;62678;52.130;5.584;2023-06-14T14:50:32;2.25;;;0.80;;
11962;SDS011;62678;52.130;5.584;2023-06-14T14:52:59;2.50;;;0.90;;
11962;SDS011;62678;52.130;5.584;2023-06-14T14:55:27;4.30;;;1.10;;
11962;SDS011;62678;52.130;5.584;2023-06-14T14:57:55;3.05;;;0.90;;